Seattle Express — A8GU5 — position and weather

sailwx.info

Track history (hours):
 
Tides and Currents Weather Stations Pressure Air Temp Water Temp Dewpoint Dewpoint Depression Visibility Wind Speed Wind Dir Waves Ship Positions

Seattle Express

Last reported at 2016-Aug-10 11:32 UTC. Time now 2016-Sep-26 20:45 UTC.
Position N 01°16' E 104°08'.
Warning: this ship's position is 47 days out of date.

Length 264.1 m; beam 32.3 m; draft 12.5 m.

Type: Ship (hazmat cat A). MMSI: 636090860.

Date/timePositionNaut miles runAvg speedWind from/ knotsBaromVisibWave heightAir tempDewpointWater temp
2016-Aug-10 11:32N 01°16' E 104°08'7 6.7
2016-Aug-10 10:32N 01°15' E 104°01'7 6.7
2016-Aug-10 09:32N 01°13' E 103°55'2 1.5
2016-Aug-10 08:25N 01°14' E 103°53'0 0.0
2016-Aug-10 04:31N 01°14' E 103°53'0 0.1
2016-Aug-10 03:28N 01°14' E 103°53'0 0.1
2016-Aug-10 02:31N 01°14' E 103°53'0 0.1
2016-Aug-10 01:25N 01°14' E 103°53'0 0.1
2016-Aug-10 00:31N 01°14' E 103°53'0 0.0
2016-Aug-09 23:31N 01°14' E 103°53'0 0.0
2016-Aug-09 22:28N 01°14' E 103°53'0 0.0
2016-Aug-09 21:31N 01°14' E 103°53'0 0.0
2016-Aug-09 20:31N 01°14' E 103°53'0 0.0
2016-Aug-09 19:31N 01°14' E 103°53'0 0.1
2016-Aug-09 18:33N 01°14' E 103°53'0 0.0
2016-Aug-09 17:33N 01°14' E 103°53'0 0.1
2016-Aug-09 16:30N 01°14' E 103°53'0 0.0
2016-Aug-09 15:30N 01°14' E 103°53'0 0.1
2016-Aug-09 14:33N 01°14' E 103°53'0 0.0
2016-Aug-09 13:30N 01°14' E 103°53'0 0.0
2016-Aug-09 12:33N 01°14' E 103°53'0 0.1
2016-Aug-09 11:30N 01°14' E 103°53'0 0.0
2016-Aug-09 10:33N 01°14' E 103°53'0 0.0
2016-Aug-09 09:33N 01°14' E 103°53'0 0.0
2016-Aug-09 08:33N 01°14' E 103°53'0 0.1
2016-Aug-09 07:33N 01°14' E 103°53'0 0.0
2016-Aug-09 04:29N 01°14' E 103°53'0 0.0
2016-Aug-09 03:32N 01°14' E 103°53'0 0.0
2016-Aug-09 02:26N 01°14' E 103°53'0 0.0
2016-Aug-09 01:32N 01°14' E 103°53'0 0.1
2016-Aug-09 00:29N 01°14' E 103°53'0 0.0
2016-Aug-08 23:23N 01°14' E 103°53'0 0.0
2016-Aug-08 22:32N 01°14' E 103°53'0 0.0
2016-Aug-08 21:32N 01°14' E 103°53'0 0.0
2016-Aug-08 20:29N 01°14' E 103°53'0 0.1
2016-Aug-08 19:26N 01°14' E 103°53'0 0.0
2016-Aug-08 17:20N 01°14' E 103°53'0 0.0
2016-Aug-08 16:32N 01°14' E 103°53'0 0.0
2016-Aug-08 15:32N 01°14' E 103°53'0 0.1
2016-Aug-08 14:32N 01°14' E 103°53'0 0.1
2016-Aug-08 13:20N 01°14' E 103°53'0 0.1
2016-Aug-08 12:32N 01°14' E 103°53'0 0.1
2016-Aug-08 11:32N 01°14' E 103°53'0 0.0
2016-Aug-08 10:32N 01°14' E 103°53'2 1.9
2016-Aug-08 09:33N 01°14' E 103°55'6 6.4
2016-Aug-08 08:33N 01°16' E 104°01'6 6.4
2016-Aug-08 07:32N 01°17' E 104°08'  
Track history (hours):
 
Tides and Currents Weather Stations Pressure Air Temp Water Temp Dewpoint Dewpoint Depression Visibility Wind Speed Wind Dir Waves Ship Positions

Seattle Express

Last reported at 2016-Aug-10 11:32 UTC. Time now 2016-Sep-26 20:45 UTC.
Position N 01°16' E 104°08'.
Warning: this ship's position is 47 days out of date.

Length 264.1 m; beam 32.3 m; draft 12.5 m.

Type: Ship (hazmat cat A). MMSI: 636090860.

Date/timePositionNaut miles runAvg speedWind from/ knotsBaromVisibWave heightAir tempDewpointWater temp
2016-Aug-10 11:32N 01°16' E 104°08'7 6.7
2016-Aug-10 10:32N 01°15' E 104°01'7 6.7
2016-Aug-10 09:32N 01°13' E 103°55'2 1.5
2016-Aug-10 08:25N 01°14' E 103°53'0 0.0
2016-Aug-10 04:31N 01°14' E 103°53'0 0.1
2016-Aug-10 03:28N 01°14' E 103°53'0 0.1
2016-Aug-10 02:31N 01°14' E 103°53'0 0.1
2016-Aug-10 01:25N 01°14' E 103°53'0 0.1
2016-Aug-10 00:31N 01°14' E 103°53'0 0.0
2016-Aug-09 23:31N 01°14' E 103°53'0 0.0
2016-Aug-09 22:28N 01°14' E 103°53'0 0.0
2016-Aug-09 21:31N 01°14' E 103°53'0 0.0
2016-Aug-09 20:31N 01°14' E 103°53'0 0.0
2016-Aug-09 19:31N 01°14' E 103°53'0 0.1
2016-Aug-09 18:33N 01°14' E 103°53'0 0.0
2016-Aug-09 17:33N 01°14' E 103°53'0 0.1
2016-Aug-09 16:30N 01°14' E 103°53'0 0.0
2016-Aug-09 15:30N 01°14' E 103°53'0 0.1
2016-Aug-09 14:33N 01°14' E 103°53'0 0.0
2016-Aug-09 13:30N 01°14' E 103°53'0 0.0
2016-Aug-09 12:33N 01°14' E 103°53'0 0.1
2016-Aug-09 11:30N 01°14' E 103°53'0 0.0
2016-Aug-09 10:33N 01°14' E 103°53'0 0.0
2016-Aug-09 09:33N 01°14' E 103°53'0 0.0
2016-Aug-09 08:33N 01°14' E 103°53'0 0.1
2016-Aug-09 07:33N 01°14' E 103°53'0 0.0
2016-Aug-09 04:29N 01°14' E 103°53'0 0.0
2016-Aug-09 03:32N 01°14' E 103°53'0 0.0
2016-Aug-09 02:26N 01°14' E 103°53'0 0.0
2016-Aug-09 01:32N 01°14' E 103°53'0 0.1
2016-Aug-09 00:29N 01°14' E 103°53'0 0.0
2016-Aug-08 23:23N 01°14' E 103°53'0 0.0
2016-Aug-08 22:32N 01°14' E 103°53'0 0.0
2016-Aug-08 21:32N 01°14' E 103°53'0 0.0
2016-Aug-08 20:29N 01°14' E 103°53'0 0.1
2016-Aug-08 19:26N 01°14' E 103°53'0 0.0
2016-Aug-08 17:20N 01°14' E 103°53'0 0.0
2016-Aug-08 16:32N 01°14' E 103°53'0 0.0
2016-Aug-08 15:32N 01°14' E 103°53'0 0.1
2016-Aug-08 14:32N 01°14' E 103°53'0 0.1
2016-Aug-08 13:20N 01°14' E 103°53'0 0.1
2016-Aug-08 12:32N 01°14' E 103°53'0 0.1
2016-Aug-08 11:32N 01°14' E 103°53'0 0.0
2016-Aug-08 10:32N 01°14' E 103°53'2 1.9
2016-Aug-08 09:33N 01°14' E 103°55'6 6.4
2016-Aug-08 08:33N 01°16' E 104°01'6 6.4
2016-Aug-08 07:32N 01°17' E 104°08'  

Dump ship's entire track history